• Join FlightAware (Why Join?)
  • Login
  • US Flag 
12:11PM EST


 

Airport Tracker/Info


-or-


 

Live Flight TrackerFlight Track Log ✈ LOF3416 ✈ 18-Jul-2013 ✈ KORD - KSGF

Flight Track Log - Related Links

Times and Time Zones

All times are in EDT time to prevent confusion due to time zone crossing. See the LOF3416 flight status page for this flight to view local times or setup timezone preferences in your user account.

Time Position Orientation Groundspeed Altitude Reporting Facility
EDT Latitude Longitude Course Direction KTS MPH feet Rate Location/Type
05:56PM 41.9167 -87.9500 224° Southwest 173 199 3,600  Level Chicago TRACON
05:57PM 41.8667 -88.0000 217° Southwest 225 259 4,800 600 Climbing Chicago TRACON
05:58PM 41.8214 -88.0156 194° South 230 265 4,900 540 Climbing Chicago Center
05:59PM 41.7503 -87.9661 153° Southeast 241 277 6,000 1,500 Climbing Chicago Center
06:01PM 41.6833 -87.9294 158° South 264 304 8,000 1,920 Climbing Chicago Center
06:02PM 41.5387 -88.4665 224° Southwest  Level Estimated
06:02PM 41.6061 -87.9203 175° South 276 318 10,000  Level Chicago Center
06:03PM 41.5447 -87.9794 216° Southwest 279 321 11,900 1,260 Climbing Chicago Center
06:04PM 41.4714 -88.0308 208° Southwest 306 352 12,700 1,140 Climbing Chicago Center
06:05PM 41.3753 -88.0850 203° Southwest 328 377 14,300 1,380 Climbing Chicago Center
06:06PM 41.2919 -88.1311 203° Southwest 334 384 15,600 1,200 Climbing Chicago Center
06:07PM 41.2056 -88.1797 203° Southwest 338 389 16,900 1,320 Climbing Chicago Center
06:08PM 41.0992 -88.2386 203° Southwest 345 397 18,400 1,380 Climbing Chicago Center
06:09PM 41.0119 -88.2869 203° Southwest 344 396 19,800 1,200 Climbing Chicago Center
06:10PM 40.9219 -88.3361 202° Southwest 347 399 21,000 1,020 Climbing Chicago Center
06:11PM 40.8300 -88.3867 203° Southwest 358 412 22,000 900 Climbing Chicago Center
06:12PM 40.7353 -88.4386 203° Southwest 366 421 22,900 960 Climbing Chicago Center
06:13PM 40.6197 -88.5022 203° Southwest 377 434 24,100 960 Climbing Chicago Center
06:14PM 40.5222 -88.5561 203° Southwest 379 436 25,000 1,080 Climbing Chicago Center
06:15PM 40.4322 -88.6036 202° Southwest 382 440 26,400 1,200 Climbing Chicago Center
06:16PM 40.3386 -88.6544 202° Southwest 367 422 27,600 720 Climbing Chicago Center
06:17PM 40.2444 -88.7603 221° Southwest 373 429 28,000 180 Climbing Chicago Center
06:18PM 40.1647 -88.8614 224° Southwest 394 453 28,000  Level Chicago Center
06:19PM 40.0825 -88.9667 224° Southwest 411 473 28,000  Level Chicago Center
06:20PM 39.9978 -89.0747 224° Southwest 422 486 28,000  Level Chicago Center
06:21PM 39.9275 -89.1608 223° Southwest 424 488 28,000  Level Kansas City Center
06:22PM 39.8422 -89.2722 225° Southwest 430 495 28,000  Level Kansas City Center
06:23PM 39.7683 -89.3983 233° Southwest 435 501 28,000  Level Kansas City Center
06:24PM 39.6992 -89.5161 233° Southwest 439 505 28,000 240 Level Kansas City Center
06:25PM 39.6092 -89.6664 232° Southwest 441 507 28,500 660 Climbing Kansas City Center
06:26PM 39.5378 -89.7861 232° Southwest 430 495 29,400 720 Climbing Kansas City Center
06:27PM 39.4672 -89.9014 232° Southwest 416 479 30,000 240 Climbing Kansas City Center
06:28PM 39.3969 -90.0194 232° Southwest 415 478 30,000  Level Kansas City Center
06:29PM 39.3236 -90.1400 232° Southwest 423 487 30,000  Level Kansas City Center
06:30PM 39.2494 -90.2631 232° Southwest 432 497 30,000  Level Kansas City Center
06:31PM 39.1603 -90.4097 232° Southwest 436 502 30,000  Level Kansas City Center
06:32PM 39.0853 -90.5322 232° Southwest 439 505 30,000  Level Kansas City Center
06:33PM 39.0106 -90.6550 232° Southwest 440 506 30,000  Level Kansas City Center
06:34PM 38.9356 -90.7747 231° Southwest 437 503 30,000  Level Kansas City Center
06:35PM 38.8442 -90.9222 232° Southwest 442 509 30,000  Level Kansas City Center
06:36PM 38.7675 -91.0453 231° Southwest 444 511 30,000  Level Kansas City Center
06:37PM 38.6911 -91.1681 231° Southwest 443 510 30,000  Level Kansas City Center
06:38PM 38.6117 -91.2917 231° Southwest 448 516 30,000  Level Kansas City Center
06:40PM 38.5386 -91.4153 233° Southwest 443 510 30,000  Level Kansas City Center
06:41PM 38.4961 -91.6006 254° West 452 520 30,000 -660 Level Kansas City Center
06:42PM 38.4589 -91.7508 252° West 450 518 28,700 -1,320 Descending Kansas City Center
06:43PM 38.3908 -91.8783 236° Southwest 447 514 27,300 -1,440 Descending Kansas City Center
06:44PM 38.3178 -92.0044 234° Southwest 443 510 25,800 -1,440 Descending Kansas City Center
06:45PM 38.2422 -92.1281 232° Southwest 444 511 24,400 -1,740 Descending Kansas City Center
06:46PM 38.1542 -92.2403 225° Southwest 449 517 22,200 -2,340 Descending Kansas City Center
06:47PM 38.0656 -92.3517 225° Southwest 452 520 19,700 -2,580 Descending Kansas City Center
06:48PM 37.9719 -92.4772 227° Southwest 423 487 16,900 -1,860 Descending Kansas City Center
06:49PM 37.8936 -92.5739 224° Southwest 402 463 15,900 -480 Descending Kansas City Center
06:50PM 37.8150 -92.6739 225° Southwest 400 460 16,000 -480 Climbing Kansas City Center
06:51PM 37.7269 -92.7847 225° Southwest 396 456 14,900 -1,380 Descending Kansas City Center
06:52PM 37.6553 -92.8744 225° Southwest 371 427 13,200 -1,680 Descending Kansas City Center
06:53PM 37.5908 -92.9556 225° Southwest 343 395 11,500 -1,620 Descending Kansas City Center
06:54PM 37.5311 -93.0297 225° Southwest 320 368 9,900 -1,680 Descending Kansas City Center
06:55PM 37.4778 -93.0972 225° Southwest 294 338 8,100 -1,740 Descending Kansas City Center
06:56PM 37.4242 -93.1647 225° Southwest 280 322 6,400 -1,920 Descending Kansas City Center
06:57PM 37.3653 -93.2461 228° Southwest 268 308 4,200 -1,680 Descending Kansas City Center
06:58PM 37.3369 -93.3278 246° West 259 298 3,000 -960 Descending Kansas City Center
06:59PM 37.2947 -93.3572 209° Southwest 206 237 2,300 -720 Descending Kansas City Center
07:01PM 37.2457 -93.3886 219° Southwest  Level Estimated
07:08PM 37.2457 -93.3886 219° Southwest  Level Estimated
07:09PM 37.2457 -93.3886 219° Southwest  Level Estimated
07:10PM 37.2457 -93.3886 219° Southwest  Level Estimated